Eagle Creek, Indiana
Current Conditions -  °F | °C
As of 4:54 AM on Saturday 25 Oct 2014 (Local Time) from KIND Reporting Station
Broken Clouds Broken Clouds  
Wind Chill: 52°   Ceiling: 4400
Heat Index: 52°   Visibility: 7mi
Dew Point: 49°   Wind: 6mph
Humidity: 89%   Direction: 190°S
Pressure: 29.96"   Gusts: NA
Location:  39.7691°N, 86.1583°W
Report Text: KIND 250854Z 19005KT 7SM BKN044 11/09 A2996 RMK AO2 SLP143 T01110094 58012
Loading
Personal Weather Stations






























Interactive Weather Map
Tropical Storm Tracking
New forecast layout! Learn more

10-Day Weather Forecast

Advertisements
Track Severe Weather on mobile